Time;durP1;ratioP1;P1;durP2;ratioP2;P2;SDS_P1;SDS_P2;PMS_P1;PMS_P2;Temp;Humidity;BMP_temperature;BMP_pressure;BME280_temperature;BME280_humidity;BME280_pressure;Samples;Min_cycle;Max_cycle;Signal;HPM_P1;HPM_P2
2022/08/13 00:02:33;;;;;;;20.48;16.10;;;;;;;17.75;100.00;99005.05;2203956;79;21073;-85
2022/08/13 00:05:34;;;;;;;15.90;14.30;;;;;;;17.77;100.00;98999.53;2163727;82;21501;-86
2022/08/13 00:08:35;;;;;;;15.45;13.85;;;;;;;17.81;100.00;98996.72;2177339;81;20990;-84
2022/08/13 00:14:56;;;;;;;15.13;13.50;;;;;;;17.85;100.00;98992.63;2153436;82;21012;-85
2022/08/13 00:17:57;;;;;;;13.22;11.90;;;;;;;17.84;100.00;98987.03;2218449;80;21100;-86
2022/08/13 00:20:58;;;;;;;13.65;12.30;;;;;;;17.85;100.00;98996.08;2186703;80;21167;-85
2022/08/13 00:23:59;;;;;;;13.78;12.35;;;;;;;17.87;100.00;98986.59;2179043;81;21579;-86
2022/08/13 00:26:59;;;;;;;14.33;12.90;;;;;;;17.87;100.00;98991.37;2175642;81;21540;-85
2022/08/13 00:30:00;;;;;;;13.95;12.55;;;;;;;17.86;100.00;98977.02;2156029;81;21479;-86
2022/08/13 00:33:01;;;;;;;14.95;12.60;;;;;;;17.85;100.00;98970.92;2119581;84;21541;-85
2022/08/13 00:36:03;;;;;;;13.32;11.85;;;;;;;17.89;100.00;98971.28;2117889;84;21093;-86
2022/08/13 00:39:03;;;;;;;13.65;12.25;;;;;;;17.89;100.00;98965.46;2125595;81;21056;-86
2022/08/13 00:42:04;;;;;;;12.37;11.18;;;;;;;17.90;100.00;98959.65;2216764;80;21040;-85
2022/08/13 00:45:05;;;;;;;13.98;12.15;;;;;;;17.90;100.00;98967.08;2223895;78;21555;-86
2022/08/13 00:51:25;;;;;;;13.72;12.25;;;;;;;17.88;100.00;98959.06;2207319;79;21511;-85
2022/08/13 00:54:26;;;;;;;13.65;12.25;;;;;;;17.88;100.00;98959.06;2219717;79;21072;-86
2022/08/13 00:57:28;;;;;;;13.15;11.60;;;;;;;17.89;100.00;98956.20;2213787;79;21116;-86
2022/08/13 01:00:29;;;;;;;12.82;11.53;;;;;;;17.89;100.00;98956.71;2223650;79;21112;-86
2022/08/13 01:03:30;;;;;;;12.15;10.78;;;;;;;17.85;100.00;98956.36;2231537;79;21534;-86
2022/08/13 01:06:32;;;;;;;11.85;10.75;;;;;;;17.83;100.00;98950.96;2225147;78;21048;-86
2022/08/13 01:09:32;;;;;;;14.18;12.68;;;;;;;17.84;100.00;98957.39;2226499;79;21131;-86
2022/08/13 01:12:34;;;;;;;13.30;11.90;;;;;;;17.83;100.00;98951.80;2224809;78;20999;-86
2022/08/13 01:15:35;;;;;;;12.45;11.25;;;;;;;17.82;100.00;98944.86;2226204;79;21526;-86
2022/08/13 01:18:36;;;;;;;14.28;12.80;;;;;;;17.81;100.00;98939.78;2206344;79;21001;-86
2022/08/13 01:21:37;;;;;;;14.85;13.35;;;;;;;17.79;100.00;98936.55;2159827;82;21083;-86
2022/08/13 01:24:37;;;;;;;14.00;12.58;;;;;;;17.73;100.00;98932.13;2159178;82;20978;-87
2022/08/13 01:27:39;;;;;;;16.40;13.78;;;;;;;17.66;100.00;98922.92;2155919;82;21029;-86
2022/08/13 01:30:40;;;;;;;15.60;13.95;;;;;;;17.68;100.00;98921.38;2155031;81;21633;-86
2022/08/13 01:33:43;;;;;;;15.05;13.55;;;;;;;17.68;100.00;98913.43;2159846;82;20994;-85
2022/08/13 01:36:43;;;;;;;14.68;13.13;;;;;;;17.66;100.00;98911.01;2152766;82;21081;-86
2022/08/13 01:39:44;;;;;;;14.55;13.15;;;;;;;17.66;100.00;98908.36;2159932;81;21079;-86
2022/08/13 01:42:45;;;;;;;15.13;13.62;;;;;;;17.66;100.00;98908.88;2158798;82;20962;-86
2022/08/13 01:45:46;;;;;;;14.40;13.00;;;;;;;17.66;100.00;98914.98;2159659;82;21104;-86
2022/08/13 01:52:05;;;;;;;13.95;12.58;;;;;;;17.68;100.00;98899.67;2116341;84;21532;-86
2022/08/13 01:55:06;;;;;;;15.80;14.10;;;;;;;17.68;100.00;98898.86;2122351;84;21152;-86
2022/08/13 01:58:07;;;;;;;15.25;13.13;;;;;;;17.68;100.00;98898.86;2114664;84;21064;-87
2022/08/13 02:01:08;;;;;;;15.58;13.88;;;;;;;17.68;100.00;98897.55;2141088;82;21618;-87
2022/08/13 02:04:13;;;;;;;15.60;13.98;;;;;;;17.69;100.00;98905.78;2132498;82;21564;-87
2022/08/13 02:07:11;;;;;;;14.70;13.18;;;;;;;17.70;100.00;98908.23;2121607;84;21537;-86
2022/08/13 02:10:13;;;;;;;14.95;13.32;;;;;;;17.70;100.00;98900.80;2134674;81;21034;-87
2022/08/13 02:13:14;;;;;;;16.75;14.85;;;;;;;17.67;100.00;98899.90;2150226;82;21038;-87
2022/08/13 02:16:14;;;;;;;16.97;14.43;;;;;;;17.69;100.00;98913.20;2147193;82;21620;-86
2022/08/13 02:19:15;;;;;;;17.37;15.53;;;;;;;17.68;100.00;98902.32;2158112;82;21050;-87
2022/08/13 02:22:17;;;;;;;15.68;14.03;;;;;;;17.68;100.00;98903.64;2154051;82;21061;-87
2022/08/13 02:25:20;;;;;;;16.97;15.20;;;;;;;17.68;100.00;98904.16;2161003;82;21100;-87
2022/08/13 02:28:21;;;;;;;14.58;13.05;;;;;;;17.65;100.00;98904.09;2158958;82;21671;-87
2022/08/13 02:31:21;;;;;;;15.32;13.75;;;;;;;17.66;100.00;98903.58;2156248;81;21579;-88
2022/08/13 02:34:22;;;;;;;15.95;14.25;;;;;;;17.66;100.00;98898.28;2160569;82;21053;-88
2022/08/13 02:37:23;;;;;;;15.72;14.25;;;;;;;17.67;100.00;98893.28;2158351;82;21018;-88
2022/08/13 02:43:46;;;;;;;14.50;13.00;;;;;;;17.64;100.00;98884.73;2149408;82;21477;-87
2022/08/13 02:46:50;;;;;;;15.78;14.18;;;;;;;17.64;100.00;98887.38;2149843;82;21543;-88
2022/08/13 02:49:51;;;;;;;13.90;12.00;;;;;;;17.60;100.00;98888.05;2158989;81;21066;-87
2022/08/13 02:52:52;;;;;;;15.90;14.28;;;;;;;17.59;100.00;98885.92;2160677;82;21048;-87
2022/08/13 02:55:53;;;;;;;15.78;14.18;;;;;;;17.59;100.00;98883.27;2159946;82;21099;-87
2022/08/13 02:58:53;;;;;;;15.43;13.85;;;;;;;17.60;100.00;98878.78;2158264;81;21024;-86
2022/08/13 03:01:54;;;;;;;15.63;14.13;;;;;;;17.60;100.00;98872.16;2159013;82;21144;-87
2022/08/13 03:04:55;;;;;;;15.85;14.15;;;;;;;17.61;100.00;98872.45;2151618;82;21669;-87
2022/08/13 03:07:56;;;;;;;17.35;14.55;;;;;;;17.61;100.00;98875.10;2160158;82;21061;-87
2022/08/13 03:10:57;;;;;;;16.80;14.47;;;;;;;17.59;100.00;98873.20;2155006;82;21040;-86
2022/08/13 03:13:57;;;;;;;17.32;15.35;;;;;;;17.60;100.00;98866.88;2158609;82;20973;-84
2022/08/13 03:17:01;;;;;;;17.98;15.40;;;;;;;17.60;100.00;98866.35;2154524;81;21444;-87
2022/08/13 03:20:02;;;;;;;19.27;15.38;;;;;;;17.61;100.00;98867.97;2154416;82;21795;-86
2022/08/13 03:23:03;;;;;;;16.07;14.40;;;;;;;17.62;100.00;98868.77;2151839;81;21080;-85
2022/08/13 03:26:04;;;;;;;17.50;15.38;;;;;;;17.63;100.00;98866.42;2153437;81;21084;-85
2022/08/13 03:29:05;;;;;;;17.65;15.08;;;;;;;17.62;100.00;98872.74;2147730;82;21048;-86
2022/08/13 03:32:05;;;;;;;16.80;15.03;;;;;;;17.61;100.00;98861.86;2158580;82;20941;-86
2022/08/13 03:35:06;;;;;;;17.70;15.85;;;;;;;17.66;100.00;98861.22;2158519;82;21097;-86
2022/08/13 03:38:07;;;;;;;18.57;15.35;;;;;;;17.66;100.00;98867.31;2147397;82;21167;-86
2022/08/13 03:41:14;;;;;;;19.65;16.45;;;;;;;17.64;100.00;98860.89;2156483;82;21045;-87
2022/08/13 03:44:15;;;;;;;18.48;16.55;;;;;;;17.69;100.00;98867.38;2162192;82;21033;-86
2022/08/13 03:47:16;;;;;;;18.32;15.55;;;;;;;17.70;100.00;98866.38;2118434;82;21466;-86
2022/08/13 03:50:17;;;;;;;20.95;17.73;;;;;;;17.70;100.00;98869.03;2186263;81;21070;-86
2022/08/13 03:53:18;;;;;;;18.60;15.40;;;;;;;17.71;100.00;98874.09;2142477;82;21648;-86
2022/08/13 03:56:19;;;;;;;16.95;15.13;;;;;;;17.73;100.00;98878.65;2109578;82;21025;-86
2022/08/13 03:59:20;;;;;;;20.17;16.07;;;;;;;17.74;100.00;98873.67;2121161;84;21173;-87
2022/08/13 04:02:20;;;;;;;15.58;13.48;;;;;;;17.75;100.00;98875.29;2145765;82;21053;-87
2022/08/13 04:05:22;;;;;;;17.65;15.78;;;;;;;17.76;100.00;98885.37;2159137;82;21005;-87
2022/08/13 04:08:23;;;;;;;18.12;16.05;;;;;;;17.69;100.00;98885.41;2159152;82;21640;-86
2022/08/13 04:11:25;;;;;;;21.15;17.40;;;;;;;17.68;100.00;98886.44;2154916;81;21089;-86
2022/08/13 04:14:26;;;;;;;21.20;16.73;;;;;;;17.64;100.00;98879.43;2148393;81;21102;-85
2022/08/13 04:17:26;;;;;;;20.85;18.02;;;;;;;17.64;100.00;98879.95;2143129;82;21103;-85
2022/08/13 04:20:27;;;;;;;22.25;17.60;;;;;;;17.69;100.00;98876.13;2158954;82;21006;-84
2022/08/13 04:23:28;;;;;;;21.00;17.42;;;;;;;17.73;100.00;98880.49;2154615;81;21616;-85
2022/08/13 04:26:30;;;;;;;24.55;19.05;;;;;;;17.73;100.00;98879.97;2156870;82;21048;-84
2022/08/13 04:29:31;;;;;;;23.25;18.75;;;;;;;17.77;100.00;98875.06;2154245;82;21124;-84
2022/08/13 04:32:32;;;;;;;20.62;17.37;;;;;;;17.79;100.00;98877.77;2142103;82;21018;-84
2022/08/13 04:35:33;;;;;;;29.12;20.72;;;;;;;17.82;100.00;98877.32;2120887;83;21053;-85
2022/08/13 04:38:33;;;;;;;30.88;21.07;;;;;;;17.81;100.00;98877.55;2126698;83;21579;-84
2022/08/13 04:41:34;;;;;;;25.48;19.67;;;;;;;17.82;100.00;98881.81;2132093;81;21637;-85
2022/08/13 04:44:35;;;;;;;29.02;21.97;;;;;;;17.79;100.00;98879.61;2158824;82;21077;-84
2022/08/13 04:47:36;;;;;;;32.95;23.85;;;;;;;17.77;100.00;98888.30;2152120;82;21098;-84
2022/08/13 04:50:37;;;;;;;27.82;19.98;;;;;;;17.77;100.00;98881.69;2159074;82;21068;-85
2022/08/13 04:53:40;;;;;;;25.08;17.50;;;;;;;17.76;100.00;98877.42;2095826;84;21035;-86
2022/08/13 04:56:40;;;;;;;34.00;24.30;;;;;;;17.75;100.00;98881.91;2123376;81;21105;-88
2022/08/13 04:59:44;;;;;;;34.38;23.67;;;;;;;17.73;100.00;98885.78;2121856;84;21034;-86
2022/08/13 05:02:43;;;;;;;35.03;24.77;;;;;;;17.72;100.00;98888.14;2153509;81;21041;-86
2022/08/13 05:05:44;;;;;;;28.12;19.52;;;;;;;17.73;100.00;98889.76;2160929;82;21056;-85
2022/08/13 05:08:45;;;;;;;28.85;20.35;;;;;;;17.74;100.00;98886.91;2160886;82;21036;-86
2022/08/13 05:11:46;;;;;;;31.20;22.42;;;;;;;17.75;100.00;98884.55;2158513;82;21021;-89
2022/08/13 05:14:47;;;;;;;39.30;24.82;;;;;;;17.76;100.00;98888.82;2158719;82;21171;-86
2022/08/13 05:17:48;;;;;;;37.60;25.17;;;;;;;17.74;100.00;98889.56;2160470;82;21080;-85
2022/08/13 05:20:49;;;;;;;34.60;23.60;;;;;;;17.73;100.00;98879.97;2158825;81;21565;-84
2022/08/13 05:23:54;;;;;;;36.75;23.18;;;;;;;17.77;100.00;98878.52;2154767;82;21106;-84
2022/08/13 05:26:52;;;;;;;36.53;24.15;;;;;;;17.76;100.00;98884.04;2157351;82;21121;-84
2022/08/13 05:29:53;;;;;;;34.05;24.02;;;;;;;17.76;100.00;98880.07;2159020;82;21129;-84
2022/08/13 05:32:58;;;;;;;35.65;21.60;;;;;;;17.79;100.00;98881.75;2158842;81;21017;-85
2022/08/13 05:35:56;;;;;;;33.13;21.37;;;;;;;17.79;100.00;98880.94;2156943;82;21109;-86
2022/08/13 05:38:58;;;;;;;37.70;23.80;;;;;;;17.79;100.00;98884.39;2160859;82;21549;-84
2022/08/13 05:41:59;;;;;;;35.78;22.77;;;;;;;17.80;100.00;98887.33;2131990;82;21095;-84
2022/08/13 05:45:00;;;;;;;34.90;22.85;;;;;;;17.78;100.00;98884.11;2135501;82;21115;-85
2022/08/13 05:48:01;;;;;;;35.58;23.52;;;;;;;17.81;100.00;98878.88;2113573;84;21030;-83
2022/08/13 05:51:03;;;;;;;37.17;23.77;;;;;;;17.87;100.00;98880.13;2133118;80;21029;-84
2022/08/13 05:54:04;;;;;;;31.15;21.05;;;;;;;17.94;100.00;98880.05;2117844;83;21078;-83
2022/08/13 05:57:08;;;;;;;34.38;21.52;;;;;;;17.97;100.00;98876.14;2109369;82;21610;-83
2022/08/13 06:03:28;;;;;;;32.58;21.30;;;;;;;18.07;100.00;98884.36;2214506;79;21608;-84
2022/08/13 06:06:28;;;;;;;25.95;17.65;;;;;;;18.10;100.00;98871.98;2223202;79;21035;-84
2022/08/13 06:09:29;;;;;;;33.28;22.90;;;;;;;18.11;100.00;98872.30;2219289;79;21526;-84
2022/08/13 06:12:30;;;;;;;29.90;20.90;;;;;;;18.18;100.00;98862.40;2219673;79;21105;-83
2022/08/13 06:15:34;;;;;;;27.62;20.00;;;;;;;18.25;100.00;98855.17;2214508;79;21072;-83
2022/08/13 06:18:35;;;;;;;25.05;19.00;;;;;;;18.31;100.00;98866.73;2220802;79;21057;-82
2022/08/13 06:21:36;;;;;;;24.67;16.90;;;;;;;18.44;100.00;98867.84;2218463;78;21021;-87
2022/08/13 06:24:37;;;;;;;25.27;19.05;;;;;;;18.43;100.00;98872.86;2235366;79;20989;-86
2022/08/13 06:27:38;;;;;;;25.57;19.45;;;;;;;18.43;100.00;98867.05;2234167;79;21131;-84
2022/08/13 06:30:39;;;;;;;29.67;22.62;;;;;;;18.47;100.00;98864.25;2228962;79;21021;-86
2022/08/13 06:33:40;;;;;;;21.75;15.88;;;;;;;18.57;100.00;98862.37;2221747;79;21386;-86
2022/08/13 06:36:40;;;;;;;24.72;19.02;;;;;;;18.64;100.00;98862.24;2171365;81;21646;-86
2022/08/13 06:39:41;;;;;;;22.75;18.57;;;;;;;18.69;100.00;98849.95;2175474;82;20954;-86
2022/08/13 06:42:44;;;;;;;24.95;19.52;;;;;;;18.77;100.00;98852.80;2179089;82;21037;-86
2022/08/13 06:45:47;;;;;;;19.15;15.35;;;;;;;18.85;100.00;98847.16;2179196;82;21093;-87
2022/08/13 06:48:47;;;;;;;17.65;14.75;;;;;;;18.99;100.00;98852.52;2179447;81;21045;-85
2022/08/13 06:51:48;;;;;;;21.40;15.28;;;;;;;19.03;100.00;98855.02;2178799;82;21028;-87
2022/08/13 06:54:49;;;;;;;23.42;16.67;;;;;;;19.03;100.00;98851.03;2179376;82;21091;-84
2022/08/13 06:57:50;;;;;;;21.55;16.52;;;;;;;19.00;100.00;98852.80;2179049;82;21004;-85
2022/08/13 07:00:52;;;;;;;19.23;16.20;;;;;;;19.01;100.00;98857.06;2179380;82;21043;-84
2022/08/13 07:03:54;;;;;;;20.70;16.42;;;;;;;19.02;100.00;98851.27;2178763;82;21564;-86
2022/08/13 07:06:55;;;;;;;19.10;14.33;;;;;;;19.11;100.00;98853.86;2179475;82;21067;-86
2022/08/13 07:09:56;;;;;;;19.07;16.17;;;;;;;19.26;100.00;98856.03;2179424;82;21031;-84
2022/08/13 07:12:57;;;;;;;21.95;17.52;;;;;;;19.42;100.00;98862.48;2179134;82;21012;-86
2022/08/13 07:15:57;;;;;;;19.85;16.32;;;;;;;19.59;100.00;98858.11;2179135;82;21001;-86
2022/08/13 07:18:59;;;;;;;18.30;16.27;;;;;;;19.74;100.00;98855.73;2179271;81;21643;-88
2022/08/13 07:22:00;;;;;;;20.20;15.23;;;;;;;19.86;100.00;98857.06;2178660;82;21568;-85
2022/08/13 07:25:00;;;;;;;18.82;16.70;;;;;;;19.92;100.00;98856.62;2179459;82;21047;-86
2022/08/13 07:28:02;;;;;;;22.07;16.25;;;;;;;19.83;100.00;98858.31;2179792;82;21508;-87
2022/08/13 07:31:05;;;;;;;23.83;18.52;;;;;;;19.75;100.00;98860.04;2179187;82;21088;-89
2022/08/13 07:34:05;;;;;;;19.65;16.35;;;;;;;19.73;100.00;98859.97;2182547;82;21009;-84
2022/08/13 07:37:06;;;;;;;18.10;15.35;;;;;;;19.79;100.00;98858.52;2183338;82;20981;-87
2022/08/13 07:40:09;;;;;;;19.87;17.37;;;;;;;19.89;100.00;98859.23;2183042;82;21044;-87
2022/08/13 07:43:10;;;;;;;17.42;15.58;;;;;;;19.99;100.00;98866.06;2179672;81;21603;-87
2022/08/13 07:46:11;;;;;;;17.50;15.60;;;;;;;20.12;100.00;98861.02;2179944;82;21021;-86
2022/08/13 07:49:13;;;;;;;20.75;17.55;;;;;;;20.14;100.00;98870.88;2180002;82;21587;-86
2022/08/13 07:52:13;;;;;;;17.65;14.15;;;;;;;20.15;100.00;98873.30;2179006;82;21054;-86
2022/08/13 07:55:14;;;;;;;21.35;17.95;;;;;;;20.15;100.00;98877.28;2179288;82;21103;-87
2022/08/13 07:58:16;;;;;;;21.85;18.60;;;;;;;20.04;100.00;98870.69;2193604;80;20989;-86
2022/08/13 08:01:20;;;;;;;25.15;21.90;;;;;;;20.10;100.00;98870.53;2218450;80;20994;-84
2022/08/13 08:04:21;;;;;;;22.90;19.45;;;;;;;20.19;100.00;98866.97;2218913;80;21112;-85
2022/08/13 08:07:22;;;;;;;14.73;13.22;;;;;;;20.33;100.00;98871.48;2214959;80;21055;-84
2022/08/13 08:10:22;;;;;;;19.15;13.72;;;;;;;20.50;100.00;98875.02;2180598;82;21009;-84
2022/08/13 08:13:24;;;;;;;13.88;12.45;;;;;;;20.60;100.00;98871.20;2181163;82;21033;-83
2022/08/13 08:16:28;;;;;;;12.53;11.33;;;;;;;20.68;100.00;98878.78;2181118;82;21089;-87
2022/08/13 08:19:27;;;;;;;14.28;12.82;;;;;;;20.78;100.00;98880.80;2179790;80;21057;-84
2022/08/13 08:22:29;;;;;;;16.95;15.25;;;;;;;20.94;100.00;98875.20;2178687;82;21029;-88
2022/08/13 08:25:29;;;;;;;16.20;14.50;;;;;;;21.05;100.00;98878.83;2179663;82;21068;-87
2022/08/13 08:28:30;;;;;;;13.93;12.33;;;;;;;20.94;100.00;98881.34;2179646;82;21080;-85
2022/08/13 08:31:31;;;;;;;15.43;13.93;;;;;;;20.85;100.00;98884.64;2179662;81;21025;-87
2022/08/13 08:34:32;;;;;;;14.73;13.22;;;;;;;20.79;100.00;98884.27;2179347;82;21024;-85
2022/08/13 08:44:11;;;;;;;15.88;14.28;;;;;;;20.72;100.00;98874.58;2198255;80;21025;-86
2022/08/13 08:47:12;;;;;;;13.40;12.05;;;;;;;20.78;100.00;98873.34;2184083;80;21052;-88
2022/08/13 08:50:13;;;;;;;14.43;13.08;;;;;;;20.81;100.00;98863.02;2219279;80;21058;-85
2022/08/13 08:53:20;;;;;;;14.43;13.03;;;;;;;20.89;100.00;98862.61;2219000;80;21627;-87
2022/08/13 08:56:21;;;;;;;12.53;11.12;;;;;;;21.07;100.00;98860.75;2217181;80;21034;-86
2022/08/13 08:59:23;;;;;;;15.32;13.75;;;;;;;21.17;100.00;98855.05;2179755;82;21028;-88
2022/08/13 09:02:24;;;;;;;14.55;13.05;;;;;;;21.25;100.00;98849.30;2179885;82;21804;-84
2022/08/13 09:05:25;;;;;;;15.25;13.32;;;;;;;21.36;100.00;98853.47;2179512;82;21040;-86
2022/08/13 09:08:26;;;;;;;13.10;11.90;;;;;;;21.43;100.00;98842.92;2178022;82;21069;-85
2022/08/13 09:11:28;;;;;;;15.88;12.58;;;;;;;21.46;100.00;98841.08;2179697;82;21081;-87
2022/08/13 09:14:30;;;;;;;14.85;13.32;;;;;;;21.47;100.00;98844.02;2152051;82;21026;-86
2022/08/13 09:17:31;;;;;;;13.35;12.13;;;;;;;21.39;100.00;98839.12;2123619;83;21558;-87
2022/08/13 09:20:37;;;;;;;13.95;12.68;;;;;;;21.22;100.00;98830.36;2179066;80;21076;-86
2022/08/13 09:23:34;;;;;;;15.85;14.35;;;;;;;21.13;100.00;98837.16;2170872;80;21112;-87
2022/08/13 09:26:36;;;;;;;12.13;10.95;;;;;;;20.98;100.00;98828.41;2177553;80;20970;-90
2022/08/13 09:29:37;;;;;;;11.15;10.13;;;;;;;20.97;100.00;98822.29;2203026;80;21571;-89
2022/08/13 09:32:37;;;;;;;13.03;11.73;;;;;;;21.07;100.00;98811.50;2183277;80;20997;-89
2022/08/13 09:35:39;;;;;;;12.43;11.30;;;;;;;21.18;100.00;98813.25;2204102;80;21097;-90
2022/08/13 09:38:40;;;;;;;11.95;10.85;;;;;;;21.27;100.00;98815.27;2213248;80;21371;-89
2022/08/13 09:41:42;;;;;;;15.43;13.93;;;;;;;21.49;100.00;98811.84;2218384;80;21013;-88
2022/08/13 09:44:43;;;;;;;15.32;13.93;;;;;;;21.66;100.00;98809.88;2206679;80;21084;-85
2022/08/13 09:47:44;;;;;;;16.60;15.18;;;;;;;21.80;100.00;98799.13;2193990;80;21042;-86
2022/08/13 09:50:44;;;;;;;15.20;13.80;;;;;;;22.07;100.00;98791.17;2203349;80;21057;-87
2022/08/13 09:53:46;;;;;;;13.93;12.58;;;;;;;22.41;100.00;98791.76;2203402;80;21095;-86
2022/08/13 09:56:47;;;;;;;13.13;11.97;;;;;;;22.49;100.00;98795.80;2144007;81;21545;-87
2022/08/13 09:59:47;;;;;;;13.43;12.25;;;;;;;22.62;100.00;98786.04;2168409;80;21070;-86
2022/08/13 10:02:50;;;;;;;14.28;12.82;;;;;;;22.95;100.00;98786.80;2207472;80;21541;-88
2022/08/13 10:05:51;;;;;;;14.43;13.10;;;;;;;23.08;100.00;98785.03;2198764;80;21076;-88
2022/08/13 10:08:51;;;;;;;13.93;12.68;;;;;;;23.16;100.00;98783.20;2168912;81;21018;-85
2022/08/13 10:11:54;;;;;;;16.40;14.35;;;;;;;23.10;100.00;98782.09;2185059;81;21025;-85
2022/08/13 10:14:54;;;;;;;16.73;15.18;;;;;;;23.05;100.00;98788.23;2174775;81;21059;-86
2022/08/13 10:17:55;;;;;;;15.95;14.43;;;;;;;22.97;100.00;98780.17;2183060;80;21495;-86
2022/08/13 10:20:56;;;;;;;11.93;11.03;;;;;;;23.13;100.00;98781.56;2180714;81;21322;-86
2022/08/13 10:23:59;;;;;;;12.25;11.15;;;;;;;23.27;100.00;98781.37;2179712;81;21029;-87
2022/08/13 10:27:00;;;;;;;11.33;10.45;;;;;;;23.38;100.00;98773.67;2166450;81;21117;-84
2022/08/13 10:30:00;;;;;;;13.90;12.68;;;;;;;23.34;100.00;98781.95;2196837;80;21090;-85
2022/08/13 10:33:01;;;;;;;12.07;10.85;;;;;;;23.19;100.00;98777.33;2217775;80;21026;-86
2022/08/13 10:36:02;;;;;;;11.00;9.90;;;;;;;23.16;100.00;98775.73;2219106;80;21164;-86
2022/08/13 10:39:03;;;;;;;14.80;13.13;;;;;;;23.15;100.00;98773.59;2179603;81;21068;-86
2022/08/13 10:42:03;;;;;;;13.35;11.95;;;;;;;23.08;100.00;98766.34;2180582;81;21032;-85
2022/08/13 10:45:05;;;;;;;11.57;10.68;;;;;;;23.10;100.00;98762.87;2178174;81;21101;-84
2022/08/13 10:48:06;;;;;;;11.10;10.05;;;;;;;23.24;100.00;98759.21;2184727;80;21043;-84
2022/08/13 10:51:07;;;;;;;9.93;9.13;;;;;;;23.45;100.00;98760.09;2185076;81;21104;-83
2022/08/13 10:54:08;;;;;;;11.25;10.25;;;;;;;23.61;100.00;98761.78;2166744;81;21040;-85
2022/08/13 10:57:08;;;;;;;11.60;10.60;;;;;;;23.74;100.00;98757.79;2181740;80;21802;-85
2022/08/13 11:00:09;;;;;;;12.80;11.55;;;;;;;24.00;100.00;98751.95;2146286;81;21115;-84
2022/08/13 11:03:13;;;;;;;12.78;11.68;;;;;;;24.23;100.00;98743.94;2111806;83;21983;-85
2022/08/13 11:06:13;;;;;;;11.53;10.50;;;;;;;24.37;100.00;98745.05;2162502;79;21057;-85
2022/08/13 11:09:14;;;;;;;11.45;10.50;;;;;;;24.44;100.00;98734.88;2175027;81;21613;-85
2022/08/13 11:12:16;;;;;;;11.48;10.53;;;;;;;24.44;100.00;98743.44;2170016;81;21036;-85
2022/08/13 11:15:20;;;;;;;12.45;11.35;;;;;;;24.32;100.00;98749.88;2177600;81;21028;-84
2022/08/13 11:18:19;;;;;;;10.13;9.23;;;;;;;24.14;100.00;98749.05;2199030;80;21100;-84
2022/08/13 11:21:20;;;;;;;10.20;9.30;;;;;;;24.02;100.00;98752.48;2211345;80;21025;-85
2022/08/13 11:24:21;;;;;;;12.35;11.15;;;;;;;24.05;100.00;98754.65;2211232;80;21009;-85
2022/08/13 11:27:22;;;;;;;13.22;11.93;;;;;;;24.19;100.00;98751.70;2223526;78;21095;-85
2022/08/13 11:30:22;;;;;;;12.33;11.33;;;;;;;24.13;100.00;98748.75;2235012;78;21088;-85
2022/08/13 11:33:23;;;;;;;12.33;11.28;;;;;;;24.29;100.00;98749.56;2218595;79;21490;-85
2022/08/13 11:36:24;;;;;;;11.00;9.98;;;;;;;24.48;100.00;98752.53;2210775;80;21017;-85
2022/08/13 11:39:25;;;;;;;12.53;11.45;;;;;;;24.58;100.00;98764.55;2211439;80;21020;-85
2022/08/13 11:42:28;;;;;;;11.63;9.88;;;;;;;24.48;100.00;98765.38;2226774;78;21009;-85
2022/08/13 11:45:28;;;;;;;11.57;10.58;;;;;;;24.50;100.00;98769.11;2234660;79;21019;-85
2022/08/13 11:48:29;;;;;;;11.38;10.28;;;;;;;24.62;100.00;98757.08;2215721;79;21041;-85
2022/08/13 11:51:30;;;;;;;12.05;10.80;;;;;;;24.75;100.00;98760.25;2233466;79;21000;-85
2022/08/13 11:54:30;;;;;;;11.78;9.88;;;;;;;24.75;100.00;98754.90;2226717;79;21116;-85
2022/08/13 11:57:31;;;;;;;10.25;9.25;;;;;;;24.64;100.00;98758.94;2234519;79;20977;-87
2022/08/13 12:00:32;;;;;;;10.40;9.50;;;;;;;24.60;100.00;98757.88;2228909;78;21115;-86
2022/08/13 12:03:33;;;;;;;11.35;10.25;;;;;;;24.54;100.00;98768.31;2226401;78;21055;-88
2022/08/13 12:06:34;;;;;;;12.63;11.43;;;;;;;24.37;100.00;98773.94;2235660;80;20948;-85
2022/08/13 12:09:35;;;;;;;11.28;10.43;;;;;;;24.19;100.00;98764.27;2227262;79;21586;-86
2022/08/13 12:12:36;;;;;;;12.55;11.43;;;;;;;24.17;100.00;98766.42;2224121;80;21052;-86
2022/08/13 12:15:36;;;;;;;11.85;10.75;;;;;;;24.04;100.00;98771.20;2216166;78;21013;-89
2022/08/13 12:18:37;;;;;;;12.50;11.35;;;;;;;23.94;100.00;98771.72;2211025;80;20969;-87
2022/08/13 12:21:38;;;;;;;13.55;12.30;;;;;;;23.90;100.00;98770.12;2210573;80;21049;-87
2022/08/13 12:24:39;;;;;;;13.98;12.63;;;;;;;23.83;100.00;98769.03;2213861;78;21050;-89
2022/08/13 12:27:40;;;;;;;14.18;12.75;;;;;;;23.74;100.00;98771.16;2230602;79;20956;-85
2022/08/13 12:30:41;;;;;;;12.35;11.08;;;;;;;23.64;100.00;98775.14;2231767;79;21024;-85
2022/08/13 12:33:42;;;;;;;14.28;12.95;;;;;;;23.58;100.00;98778.28;2214735;79;21000;-85
2022/08/13 12:36:44;;;;;;;13.30;12.07;;;;;;;23.41;100.00;98767.83;2217254;79;21021;-85
2022/08/13 12:39:44;;;;;;;13.03;11.83;;;;;;;23.31;100.00;98770.97;2213684;79;21080;-84
2022/08/13 12:42:45;;;;;;;14.03;12.93;;;;;;;23.20;100.00;98767.45;2235649;78;21055;-83
2022/08/13 12:45:46;;;;;;;13.10;12.00;;;;;;;23.07;100.00;98776.75;2229533;79;21585;-85
2022/08/13 12:48:47;;;;;;;16.15;14.58;;;;;;;22.95;100.00;98777.46;2185594;81;21028;-85
2022/08/13 12:51:48;;;;;;;15.75;14.25;;;;;;;22.80;100.00;98773.35;2177588;81;20993;-85
2022/08/13 12:54:48;;;;;;;17.27;15.63;;;;;;;22.66;100.00;98776.45;2142701;82;21355;-86
2022/08/13 12:57:50;;;;;;;15.50;13.98;;;;;;;22.55;100.00;98773.97;2158486;81;21493;-88
2022/08/13 13:00:53;;;;;;;15.13;13.65;;;;;;;22.53;100.00;98768.90;2185123;81;21523;-85
2022/08/13 13:03:55;;;;;;;14.38;12.95;;;;;;;22.42;100.00;98768.02;2185562;80;21121;-85
2022/08/13 13:06:56;;;;;;;16.23;14.07;;;;;;;22.42;100.00;98763.22;2233321;78;21064;-86
2022/08/13 13:09:58;;;;;;;17.20;15.40;;;;;;;22.39;100.00;98754.38;2219688;79;21540;-86
2022/08/13 13:12:58;;;;;;;15.48;14.07;;;;;;;22.40;100.00;98753.31;2227574;79;21602;-86
2022/08/13 13:15:59;;;;;;;15.78;14.25;;;;;;;22.48;100.00;98755.50;2231836;78;20989;-86
2022/08/13 13:19:03;;;;;;;14.73;13.18;;;;;;;22.50;100.00;98745.94;2208554;80;21049;-86
2022/08/13 13:22:06;;;;;;;16.23;14.55;;;;;;;22.70;100.00;98740.73;2131035;83;21073;-87
2022/08/13 13:25:06;;;;;;;15.60;14.25;;;;;;;22.96;100.00;98735.05;2134580;81;21069;-91
2022/08/13 13:28:07;;;;;;;18.23;16.35;;;;;;;23.22;100.00;98740.75;2067829;85;21043;-87
2022/08/13 13:31:08;;;;;;;16.05;14.45;;;;;;;23.38;100.00;98733.60;2140200;83;21102;-88
2022/08/13 13:34:09;;;;;;;15.65;14.20;;;;;;;23.58;100.00;98727.51;2142210;83;21108;-86
2022/08/13 13:37:09;;;;;;;16.10;14.60;;;;;;;23.73;100.00;98723.58;2050004;85;21091;-88
2022/08/13 13:40:10;;;;;;;16.15;14.47;;;;;;;23.94;100.00;98721.72;2088811;85;21043;-88
2022/08/13 13:43:11;;;;;;;15.65;14.18;;;;;;;24.02;100.00;98730.56;2091043;85;21008;-88
2022/08/13 13:46:12;;;;;;;15.93;13.58;;;;;;;24.13;100.00;98734.03;2089373;84;21047;-89
2022/08/13 13:49:12;;;;;;;16.07;14.65;;;;;;;24.20;100.00;98736.45;2087435;85;21107;-89
2022/08/13 13:52:15;;;;;;;13.98;12.78;;;;;;;24.20;100.00;98742.61;2085221;85;21032;-90
2022/08/13 13:55:16;;;;;;;14.07;12.80;;;;;;;24.12;100.00;98744.47;2087559;85;21521;-87
2022/08/13 13:58:17;;;;;;;13.68;12.37;;;;;;;24.20;100.00;98733.78;2087905;84;21513;-89
2022/08/13 14:01:18;;;;;;;11.83;10.82;;;;;;;24.24;100.00;98736.20;2062304;85;21036;-87
2022/08/13 14:04:19;;;;;;;12.85;11.75;;;;;;;24.27;100.00;98732.98;2100622;84;21146;-92
2022/08/13 14:07:20;;;;;;;13.93;12.60;;;;;;;24.00;100.00;98733.23;2101823;84;21059;-91